Time;durP1;ratioP1;P1;durP2;ratioP2;P2;SDS_P1;SDS_P2;PMS_P1;PMS_P2;Temp;Humidity;BMP_temperature;BMP_pressure;BME280_temperature;BME280_humidity;BME280_pressure;Samples;Min_cycle;Max_cycle;Signal;HPM_P1;HPM_P2
2022/08/30 00:01:09;;;;;;;4.40;1.73;;;;;;;17.62;92.31;101321.16;5013731;28;20029;-92
2022/08/30 00:03:39;;;;;;;8.73;1.98;;;;;;;17.60;92.44;101315.16;5047384;28;20029;-93
2022/08/30 00:06:05;;;;;;;7.53;2.40;;;;;;;17.70;91.44;101324.03;5014251;28;20029;-93
2022/08/30 00:08:32;;;;;;;6.10;2.25;;;;;;;17.54;92.82;101313.00;5015500;28;20026;-93
2022/08/30 00:10:57;;;;;;;11.05;2.47;;;;;;;17.57;92.30;101323.34;5015381;28;20036;-92
2022/08/30 00:13:23;;;;;;;5.95;1.85;;;;;;;17.27;94.50;101316.94;5012642;28;20022;-92
2022/08/30 00:15:49;;;;;;;5.68;2.45;;;;;;;17.54;92.83;101319.16;5013658;28;20026;-93
2022/08/30 00:18:17;;;;;;;5.60;2.15;;;;;;;17.53;92.31;101316.63;5014051;28;20072;-94
2022/08/30 00:20:44;;;;;;;16.73;2.10;;;;;;;17.75;91.88;101305.91;5047119;28;20022;-93
2022/08/30 00:23:09;;;;;;;10.55;2.10;;;;;;;17.72;92.33;101316.78;5014237;28;20026;-94
2022/08/30 00:25:35;;;;;;;6.70;1.95;;;;;;;17.55;92.76;101301.41;5014150;28;20032;-93
2022/08/30 00:28:01;;;;;;;7.68;2.38;;;;;;;17.36;93.91;101299.44;5045086;28;20116;-93
2022/08/30 00:30:27;;;;;;;4.70;1.60;;;;;;;17.48;93.71;101302.91;5047075;28;20484;-93
2022/08/30 00:32:52;;;;;;;6.90;2.28;;;;;;;17.63;92.14;101301.59;5013534;28;20084;-93
2022/08/30 00:35:19;;;;;;;4.45;2.05;;;;;;;17.48;93.55;101302.91;5014979;28;20088;-93
2022/08/30 00:37:45;;;;;;;5.82;2.25;;;;;;;17.39;94.33;101304.47;5045875;28;20025;-93
2022/08/30 00:40:14;;;;;;;7.28;2.10;;;;;;;17.10;96.28;101304.22;5013594;28;20022;-94
2022/08/30 00:42:40;;;;;;;5.28;1.63;;;;;;;17.04;96.14;101301.09;5013790;28;20472;-94
2022/08/30 00:45:30;;;;;;;7.25;2.00;;;;;;;17.34;94.64;101302.22;5015046;28;20025;-94
2022/08/30 00:47:56;;;;;;;5.30;2.00;;;;;;;17.33;94.97;101305.81;5011034;28;20136;-93
2022/08/30 00:50:26;;;;;;;9.23;2.40;;;;;;;17.39;94.54;101305.31;5046352;28;20061;-92
2022/08/30 00:52:55;;;;;;;4.78;2.20;;;;;;;16.96;96.54;101306.19;5014309;28;20472;-93
2022/08/30 00:55:20;;;;;;;3.97;1.77;;;;;;;17.22;95.81;101304.06;5014459;28;20539;-92
2022/08/30 00:57:50;;;;;;;7.28;2.10;;;;;;;17.21;95.86;101304.19;5012194;28;20105;-93
2022/08/30 01:00:16;;;;;;;9.05;2.03;;;;;;;17.19;95.18;101303.47;5014073;28;20553;-92
2022/08/30 01:02:42;;;;;;;3.45;1.75;;;;;;;17.13;96.13;101301.31;5014341;28;20030;-93
2022/08/30 01:05:10;;;;;;;2.47;1.73;;;;;;;17.25;95.40;101308.28;5012556;28;20117;-93
2022/08/30 01:07:37;;;;;;;6.00;2.00;;;;;;;17.08;95.94;101308.78;5010630;28;20052;-93
2022/08/30 01:10:04;;;;;;;5.60;1.77;;;;;;;17.07;95.51;101315.91;5046075;28;20479;-92
2022/08/30 01:12:30;;;;;;;8.40;1.90;;;;;;;17.04;96.01;101311.72;5013965;28;20037;-92
2022/08/30 01:14:57;;;;;;;9.27;2.45;;;;;;;17.13;95.71;101315.41;5012475;28;20036;-93
2022/08/30 01:17:23;;;;;;;5.63;1.85;;;;;;;17.02;95.95;101308.34;5012086;28;20026;-93
2022/08/30 01:19:56;;;;;;;6.93;2.25;;;;;;;17.01;96.81;101319.91;5012593;28;20036;-92
2022/08/30 01:22:37;;;;;;;3.85;1.92;;;;;;;16.55;98.97;101315.59;5012785;28;20026;-92
2022/08/30 01:25:05;;;;;;;4.88;1.83;;;;;;;16.87;97.34;101325.50;5045560;28;20077;-92
2022/08/30 01:27:33;;;;;;;9.60;2.35;;;;;;;16.92;97.19;101323.28;5013128;28;20030;-93
2022/08/30 01:30:00;;;;;;;10.65;2.00;;;;;;;16.84;97.62;101323.94;5013758;28;20038;-92
2022/08/30 01:32:28;;;;;;;13.73;3.45;;;;;;;16.83;97.68;101329.34;5013708;28;20109;-92
2022/08/30 01:34:54;;;;;;;10.20;2.40;;;;;;;16.73;98.34;101331.03;5045481;28;20033;-93
2022/08/30 01:37:27;;;;;;;6.90;2.15;;;;;;;16.82;98.78;101327.66;5012946;28;20402;-93
2022/08/30 01:39:53;;;;;;;5.05;2.10;;;;;;;16.76;98.57;101328.13;5045448;28;20018;-92
2022/08/30 01:42:19;;;;;;;5.18;2.10;;;;;;;16.96;97.23;101322.09;5012354;28;20144;-93
2022/08/30 01:44:46;;;;;;;6.10;1.77;;;;;;;16.82;98.39;101325.88;5008189;28;20488;-93
2022/08/30 01:47:12;;;;;;;8.18;2.40;;;;;;;16.43;100.00;101319.22;5012460;28;20037;-93
2022/08/30 01:49:38;;;;;;;6.70;1.98;;;;;;;16.73;98.72;101325.72;5012412;28;20458;-94
2022/08/30 01:52:05;;;;;;;6.15;2.10;;;;;;;16.69;99.24;101326.94;5012540;28;20097;-94
2022/08/30 01:54:34;;;;;;;5.45;2.13;;;;;;;16.72;98.34;101327.50;5011648;28;20037;-93
2022/08/30 01:56:59;;;;;;;6.07;2.42;;;;;;;16.79;98.51;101330.53;5013566;28;20065;-93
2022/08/30 01:59:24;;;;;;;7.95;2.25;;;;;;;16.59;99.10;101317.03;5012969;28;20030;-95
2022/08/30 02:01:50;;;;;;;10.25;2.08;;;;;;;16.62;99.33;101326.56;5013202;28;20430;-93
2022/08/30 02:04:15;;;;;;;4.03;1.70;;;;;;;16.67;99.37;101316.44;5011496;28;20432;-93
2022/08/30 02:06:42;;;;;;;6.68;1.95;;;;;;;16.62;99.93;101318.59;5013501;28;20045;-93
2022/08/30 02:09:07;;;;;;;7.13;2.17;;;;;;;16.56;100.00;101311.97;5013406;28;20094;-92
2022/08/30 02:11:33;;;;;;;7.05;1.75;;;;;;;16.66;98.93;101328.84;5012205;28;20108;-92
2022/08/30 02:13:58;;;;;;;6.57;1.88;;;;;;;16.71;99.54;101335.59;5012687;28;20384;-92
2022/08/30 02:16:24;;;;;;;4.80;2.50;;;;;;;16.59;100.00;101330.31;5013040;28;20486;-92
2022/08/30 02:18:52;;;;;;;8.63;2.30;;;;;;;16.34;100.00;101341.13;5012908;28;20029;-92
2022/08/30 02:21:18;;;;;;;5.53;1.90;;;;;;;16.56;100.00;101327.88;5013224;28;20029;-92
2022/08/30 02:23:43;;;;;;;5.57;1.83;;;;;;;16.52;100.00;101330.91;5010052;28;20558;-93
2022/08/30 02:26:09;;;;;;;7.95;2.40;;;;;;;16.29;100.00;101325.59;5012101;28;20030;-93
2022/08/30 02:28:35;;;;;;;6.00;2.05;;;;;;;16.25;100.00;101327.63;5012979;28;20026;-94
2022/08/30 02:31:00;;;;;;;4.45;1.67;;;;;;;16.42;100.00;101336.06;5013056;28;20026;-93
2022/08/30 02:33:26;;;;;;;5.43;1.98;;;;;;;16.45;100.00;101328.72;5013147;28;20113;-94
2022/08/30 02:35:51;;;;;;;3.65;1.55;;;;;;;16.33;100.00;101335.00;5011831;28;20479;-93
2022/08/30 02:38:17;;;;;;;3.95;1.55;;;;;;;16.27;100.00;101332.78;5012747;28;20022;-92
2022/08/30 02:40:43;;;;;;;6.75;1.83;;;;;;;16.21;100.00;101333.25;5011198;28;20026;-93
2022/08/30 02:43:09;;;;;;;6.22;1.70;;;;;;;16.52;100.00;101328.25;5013024;28;20022;-93
2022/08/30 02:45:35;;;;;;;5.00;1.90;;;;;;;16.45;100.00;101319.94;5010967;28;20034;-93
2022/08/30 02:48:00;;;;;;;9.25;1.60;;;;;;;16.19;100.00;101314.88;5044831;28;20038;-93
2022/08/30 02:50:25;;;;;;;3.30;1.70;;;;;;;16.10;100.00;101330.63;5044947;28;20504;-93
2022/08/30 02:52:51;;;;;;;3.92;1.65;;;;;;;16.32;100.00;101325.34;5011502;28;20383;-93
2022/08/30 02:55:17;;;;;;;11.60;1.95;;;;;;;16.29;100.00;101325.59;5011187;28;20034;-93
2022/08/30 02:57:43;;;;;;;5.43;1.63;;;;;;;16.31;100.00;101328.97;5044893;28;20050;-93
2022/08/30 03:00:12;;;;;;;11.02;2.25;;;;;;;16.14;100.00;101326.78;5011927;28;20068;-92
2022/08/30 03:02:39;;;;;;;3.30;1.52;;;;;;;16.24;100.00;101333.03;5044671;28;20017;-93
2022/08/30 03:05:06;;;;;;;8.98;1.90;;;;;;;16.06;100.00;101330.84;5010589;28;20442;-93
2022/08/30 03:07:32;;;;;;;4.65;1.95;;;;;;;16.26;100.00;101325.81;5012587;28;20056;-92
2022/08/30 03:09:58;;;;;;;5.28;1.92;;;;;;;16.23;100.00;101324.25;5011510;28;20178;-92
2022/08/30 03:12:24;;;;;;;4.40;1.60;;;;;;;16.02;100.00;101323.25;5012686;28;20117;-93
2022/08/30 03:14:49;;;;;;;5.75;1.48;;;;;;;16.29;100.00;101322.06;5010539;28;20030;-93
2022/08/30 03:17:15;;;;;;;5.38;2.05;;;;;;;16.15;100.00;101315.19;5011335;28;20472;-92
2022/08/30 03:19:41;;;;;;;5.38;1.55;;;;;;;16.16;100.00;101323.03;5012479;28;20030;-92
2022/08/30 03:22:07;;;;;;;3.42;1.58;;;;;;;16.17;100.00;101316.78;5011900;28;20037;-92
2022/08/30 03:24:33;;;;;;;4.15;1.45;;;;;;;16.22;100.00;101325.22;5010520;28;20045;-92
2022/08/30 03:26:59;;;;;;;5.78;1.80;;;;;;;16.39;100.00;101315.09;5011007;28;20026;-93
2022/08/30 03:29:24;;;;;;;3.05;1.63;;;;;;;16.17;100.00;101322.09;5012441;28;20029;-92
2022/08/30 03:31:51;;;;;;;5.15;1.50;;;;;;;16.16;100.00;101315.09;5010975;28;20515;-93
2022/08/30 03:34:17;;;;;;;3.17;1.50;;;;;;;16.13;100.00;101315.31;5009981;28;20026;-91
2022/08/30 03:36:43;;;;;;;4.25;1.77;;;;;;;16.16;100.00;101328.34;5011789;28;20037;-93
2022/08/30 03:39:09;;;;;;;5.57;1.75;;;;;;;15.97;100.00;101323.59;5010250;28;20022;-92
2022/08/30 03:41:35;;;;;;;6.20;1.60;;;;;;;16.03;100.00;101320.50;5011073;28;20030;-92
2022/08/30 03:44:01;;;;;;;5.65;1.70;;;;;;;16.03;100.00;101316.97;5011474;28;20033;-92
2022/08/30 03:46:27;;;;;;;5.65;1.95;;;;;;;16.06;100.00;101308.81;5011755;28;20056;-92
2022/08/30 03:48:54;;;;;;;5.53;1.75;;;;;;;16.07;100.00;101318.44;5013800;28;20483;-92
2022/08/30 03:51:21;;;;;;;4.95;1.88;;;;;;;16.17;100.00;101315.91;5015752;28;20109;-92
2022/08/30 03:53:46;;;;;;;4.78;1.80;;;;;;;15.89;100.00;101312.75;5014347;28;20030;-93
2022/08/30 03:56:11;;;;;;;4.32;1.30;;;;;;;15.95;100.00;101306.13;5013631;28;20037;-93
2022/08/30 03:58:37;;;;;;;4.55;1.70;;;;;;;16.06;100.00;101309.66;5015475;28;20036;-92
2022/08/30 04:01:02;;;;;;;6.50;1.80;;;;;;;15.94;100.00;101304.47;5015589;28;20105;-92
2022/08/30 04:03:28;;;;;;;6.82;1.92;;;;;;;15.69;100.00;101308.91;5015507;28;20022;-93
2022/08/30 04:05:54;;;;;;;4.72;1.55;;;;;;;15.83;100.00;101300.81;5046517;28;20052;-93
2022/08/30 04:08:20;;;;;;;8.30;1.70;;;;;;;15.93;100.00;101305.41;5014299;28;20072;-92
2022/08/30 04:10:47;;;;;;;6.72;1.85;;;;;;;15.89;100.00;101309.25;5047566;28;20025;-92
2022/08/30 04:13:15;;;;;;;6.15;1.67;;;;;;;15.93;100.00;101294.81;5015634;28;20037;-93
2022/08/30 04:15:41;;;;;;;7.25;2.08;;;;;;;15.64;100.00;101296.03;5013823;28;20384;-92
2022/08/30 04:18:06;;;;;;;3.92;1.42;;;;;;;15.62;100.00;101299.75;5011917;28;20060;-93
2022/08/30 04:20:32;;;;;;;8.25;1.75;;;;;;;15.81;100.00;101288.66;5012482;28;20030;-93
2022/08/30 04:22:58;;;;;;;4.50;1.80;;;;;;;15.71;100.00;101293.75;5015160;28;20037;-92
2022/08/30 04:25:23;;;;;;;5.90;1.65;;;;;;;15.63;100.00;101296.16;5014278;28;20148;-92
2022/08/30 04:27:49;;;;;;;6.00;1.73;;;;;;;15.79;100.00;101299.34;5014916;28;20029;-93
2022/08/30 04:30:15;;;;;;;5.82;1.52;;;;;;;15.70;100.00;101293.88;5015145;28;20376;-92
2022/08/30 04:32:42;;;;;;;6.35;1.75;;;;;;;15.51;100.00;101300.56;5014707;28;20084;-92
2022/08/30 04:35:08;;;;;;;3.38;1.95;;;;;;;15.54;100.00;101308.28;5013192;28;20108;-93
2022/08/30 04:37:35;;;;;;;8.98;1.73;;;;;;;15.62;100.00;101308.56;5042140;28;20503;-93
2022/08/30 04:40:01;;;;;;;4.55;1.50;;;;;;;15.72;100.00;101306.06;5014627;28;20494;-92
2022/08/30 04:42:30;;;;;;;7.97;2.00;;;;;;;15.77;100.00;101301.28;5013664;28;20022;-92
2022/08/30 04:44:57;;;;;;;6.80;2.25;;;;;;;15.53;100.00;101306.56;5012259;28;20022;-91
2022/08/30 04:47:22;;;;;;;4.43;1.73;;;;;;;15.70;100.00;101301.81;5012480;28;20022;-93
2022/08/30 04:49:48;;;;;;;5.95;1.70;;;;;;;15.59;100.00;101302.63;5046320;28;20323;-92
2022/08/30 04:52:13;;;;;;;4.47;1.48;;;;;;;15.58;100.00;101293.84;5014434;28;20033;-91
2022/08/30 04:54:38;;;;;;;4.15;1.92;;;;;;;15.60;100.00;101297.22;5012120;28;20034;-93
2022/08/30 04:57:05;;;;;;;3.35;1.52;;;;;;;15.60;100.00;101304.31;5014427;28;20479;-93
2022/08/30 04:59:32;;;;;;;6.30;1.77;;;;;;;15.61;100.00;101306.00;5013784;28;20033;-92
2022/08/30 05:01:57;;;;;;;6.93;2.08;;;;;;;15.33;100.00;101308.06;5046260;28;20026;-92
2022/08/30 05:04:23;;;;;;;3.28;1.80;;;;;;;15.34;100.00;101311.53;5011195;28;20022;-93
2022/08/30 05:06:49;;;;;;;5.40;1.58;;;;;;;15.59;100.00;101310.56;5013242;28;20037;-93
2022/08/30 05:09:14;;;;;;;4.95;1.58;;;;;;;15.57;100.00;101317.78;5014384;28;20025;-93
2022/08/30 05:11:42;;;;;;;3.25;1.70;;;;;;;15.44;100.00;101310.75;5014459;28;20022;-94
2022/08/30 05:14:08;;;;;;;5.30;1.98;;;;;;;15.62;100.00;101326.22;5012082;28;20034;-92
2022/08/30 05:16:34;;;;;;;4.07;1.52;;;;;;;15.48;100.00;101327.22;5013586;28;20047;-92
2022/08/30 05:19:00;;;;;;;3.80;1.65;;;;;;;15.46;100.00;101330.03;5014092;28;20109;-93
2022/08/30 05:21:26;;;;;;;3.35;1.50;;;;;;;15.47;100.00;101331.69;5014319;28;20013;-93
2022/08/30 05:23:54;;;;;;;3.25;1.48;;;;;;;15.46;100.00;101332.66;5012823;28;20025;-93
2022/08/30 05:26:26;;;;;;;6.93;2.10;;;;;;;15.61;100.00;101335.13;5044338;28;20018;-92
2022/08/30 05:28:52;;;;;;;4.25;1.55;;;;;;;15.36;100.00;101326.34;5012177;28;20026;-92
2022/08/30 05:31:21;;;;;;;5.10;2.60;;;;;;;15.41;100.00;101333.97;5013407;28;20237;-92
2022/08/30 05:33:48;;;;;;;3.40;1.70;;;;;;;15.49;100.00;101331.59;5012974;28;20038;-92
2022/08/30 05:36:15;;;;;;;5.25;1.70;;;;;;;15.40;100.00;101333.13;5011379;28;20026;-91
2022/08/30 05:38:41;;;;;;;3.50;1.48;;;;;;;15.53;100.00;101327.75;5013125;28;20033;-91
2022/08/30 05:41:07;;;;;;;6.07;1.75;;;;;;;15.25;100.00;101324.50;5013039;28;20109;-91
2022/08/30 05:43:32;;;;;;;5.38;1.95;;;;;;;15.45;100.00;101327.47;5014906;28;20022;-91
2022/08/30 05:46:05;;;;;;;5.85;1.83;;;;;;;15.60;100.00;101336.06;5011891;28;20033;-91
2022/08/30 05:48:30;;;;;;;3.47;1.67;;;;;;;15.55;100.00;101331.13;5013040;28;20022;-93
2022/08/30 05:51:08;;;;;;;6.95;1.60;;;;;;;15.61;100.00;101340.41;5012858;28;20436;-92
2022/08/30 05:53:34;;;;;;;7.15;2.67;;;;;;;15.70;100.00;101345.03;5014498;28;20479;-91
2022/08/30 05:56:03;;;;;;;4.75;1.60;;;;;;;15.79;100.00;101343.53;5010955;28;20038;-91
2022/08/30 05:58:29;;;;;;;2.63;1.20;;;;;;;15.92;100.00;101343.47;5044685;28;20129;-92
2022/08/30 06:00:55;;;;;;;7.20;2.00;;;;;;;15.94;100.00;101341.53;5013101;28;20033;-92
2022/08/30 06:03:21;;;;;;;5.60;1.52;;;;;;;15.92;100.00;101338.16;5011876;28;20026;-92
2022/08/30 06:05:46;;;;;;;5.40;2.47;;;;;;;15.93;100.00;101347.78;5015026;28;20025;-92
2022/08/30 06:08:12;;;;;;;4.00;1.90;;;;;;;15.77;100.00;101341.00;5012930;28;20030;-92
2022/08/30 06:10:37;;;;;;;3.90;1.98;;;;;;;15.76;100.00;101336.66;5012462;28;20056;-92
2022/08/30 06:13:03;;;;;;;4.88;2.08;;;;;;;16.03;100.00;101340.81;4999379;28;20041;-92
2022/08/30 06:15:28;;;;;;;8.38;1.60;;;;;;;15.71;100.00;101338.78;5020134;28;20037;-93
2022/08/30 06:17:53;;;;;;;14.20;2.30;;;;;;;15.96;100.00;101321.09;5008844;28;20507;-93
2022/08/30 06:20:19;;;;;;;9.00;1.80;;;;;;;16.12;100.00;101334.84;4995029;28;20026;-91
2022/08/30 06:22:45;;;;;;;6.82;2.17;;;;;;;16.03;100.00;101340.81;4999485;28;20424;-93
2022/08/30 06:25:11;;;;;;;5.85;2.03;;;;;;;16.20;100.00;101332.44;4995479;28;20057;-92
2022/08/30 06:27:36;;;;;;;6.05;1.92;;;;;;;16.41;100.00;101332.59;5011033;28;20484;-92
2022/08/30 06:30:03;;;;;;;4.55;1.58;;;;;;;16.56;100.00;101333.19;5012525;28;20228;-93
2022/08/30 06:32:28;;;;;;;6.50;1.60;;;;;;;16.53;100.00;101336.09;5011119;28;20026;-92
2022/08/30 06:34:54;;;;;;;5.40;1.70;;;;;;;16.77;100.00;101351.88;5010914;28;20028;-92
2022/08/30 06:37:19;;;;;;;7.05;1.73;;;;;;;16.73;100.00;101347.78;5006868;28;20132;-92
2022/08/30 06:39:45;;;;;;;6.85;1.98;;;;;;;16.68;100.00;101341.13;5012126;28;20022;-91
2022/08/30 06:42:10;;;;;;;8.30;1.70;;;;;;;16.82;100.00;101336.47;5012036;28;20050;-92
2022/08/30 06:44:35;;;;;;;3.67;1.63;;;;;;;17.07;100.00;101342.47;5010967;28;20053;-92
2022/08/30 06:47:01;;;;;;;6.72;1.92;;;;;;;17.39;100.00;101346.97;5007499;28;20029;-92
2022/08/30 06:49:26;;;;;;;6.15;1.90;;;;;;;18.40;100.00;101351.78;5014737;28;20034;-92
2022/08/30 06:51:52;;;;;;;4.95;1.77;;;;;;;20.40;87.88;101351.63;5012106;28;20260;-92
2022/08/30 06:54:18;;;;;;;3.53;1.42;;;;;;;23.35;70.92;101345.16;5010733;28;20025;-92
2022/08/30 06:56:43;;;;;;;3.05;1.23;;;;;;;25.17;58.14;101339.25;5010919;28;20439;-91
2022/08/30 06:59:09;;;;;;;7.60;1.63;;;;;;;24.52;58.77;101341.22;5011882;28;20018;-92
2022/08/30 07:01:34;;;;;;;5.32;1.35;;;;;;;25.89;54.13;101362.28;5012138;28;20542;-91
2022/08/30 07:04:00;;;;;;;5.05;1.55;;;;;;;28.34;45.54;101348.28;5012180;28;20022;-94
2022/08/30 07:06:27;;;;;;;2.53;1.10;;;;;;;29.73;41.27;101352.56;5013018;28;20479;-93
2022/08/30 07:08:53;;;;;;;3.20;1.20;;;;;;;30.73;39.86;101347.78;5010894;28;20068;-92
2022/08/30 07:11:31;;;;;;;3.67;1.20;;;;;;;30.25;39.48;101353.53;5028680;28;20053;-93
2022/08/30 07:13:57;;;;;;;3.45;1.10;;;;;;;27.45;44.25;101355.06;5031595;28;20103;-92
2022/08/30 07:16:22;;;;;;;5.93;1.65;;;;;;;26.54;47.48;101357.25;5016707;28;20483;-91
2022/08/30 07:18:53;;;;;;;3.60;1.15;;;;;;;24.86;52.03;101353.53;5011736;28;20037;-92
2022/08/30 07:21:23;;;;;;;6.57;1.17;;;;;;;23.79;56.67;101360.97;5017904;28;20026;-92
2022/08/30 07:23:50;;;;;;;8.52;1.35;;;;;;;22.61;65.04;101352.94;5015328;28;20410;-90
2022/08/30 07:26:20;;;;;;;5.80;1.52;;;;;;;22.95;66.66;101352.06;5012578;28;20476;-90
2022/08/30 07:28:46;;;;;;;3.70;1.35;;;;;;;22.73;66.44;101359.69;5010326;28;20044;-90
2022/08/30 07:31:14;;;;;;;6.38;1.30;;;;;;;22.04;72.09;101355.22;5015434;28;20376;-89
2022/08/30 07:33:40;;;;;;;5.78;1.55;;;;;;;21.90;74.28;101351.28;5024731;28;20029;-89
2022/08/30 07:36:06;;;;;;;3.30;1.15;;;;;;;21.27;78.50;101355.72;5024514;28;20161;-90
2022/08/30 07:38:32;;;;;;;7.88;1.83;;;;;;;21.36;78.57;101351.28;5022418;28;20049;-90
2022/08/30 07:40:59;;;;;;;5.93;1.35;;;;;;;21.97;76.92;101363.03;5036279;28;20107;-91
2022/08/30 07:43:29;;;;;;;4.13;1.30;;;;;;;22.44;74.18;101353.84;5029559;28;20032;-93
2022/08/30 07:45:59;;;;;;;7.35;1.50;;;;;;;22.77;71.10;101366.38;5014476;28;20045;-89
2022/08/30 07:48:24;;;;;;;4.30;1.08;;;;;;;22.95;71.77;101360.94;5013589;28;20026;-89
2022/08/30 07:50:49;;;;;;;7.38;1.60;;;;;;;23.52;67.07;101362.09;5014968;28;20378;-89
2022/08/30 07:53:15;;;;;;;7.25;1.23;;;;;;;23.63;66.67;101356.41;5017348;28;20396;-89
2022/08/30 07:55:40;;;;;;;7.47;1.30;;;;;;;28.93;48.73;101346.94;5013069;28;20088;-87
2022/08/30 07:58:05;;;;;;;4.00;1.35;;;;;;;32.50;38.32;101338.69;5029879;28;20033;-89
2022/08/30 08:00:31;;;;;;;3.50;1.02;;;;;;;34.09;34.49;101331.13;5014898;28;20026;-90
2022/08/30 08:02:56;;;;;;;4.40;1.13;;;;;;;34.64;33.37;101322.50;5023269;28;20028;-89
2022/08/30 08:05:22;;;;;;;5.40;1.20;;;;;;;35.12;31.92;101329.41;5016104;28;20377;-88
2022/08/30 08:07:47;;;;;;;3.78;1.00;;;;;;;36.27;30.35;101344.63;5014507;28;20080;-88
2022/08/30 08:10:12;;;;;;;;;;;;;;;37.69;28.68;101306.13;5014871;28;20029;-89
2022/08/30 08:12:38;;;;;;;;;;;;;;;40.79;25.60;101283.94;5027620;28;19960;-90
2022/08/30 08:15:04;;;;;;;;;;;;;;;38.85;26.00;101272.31;5029465;28;19923;-90
2022/08/30 08:17:29;;;;;;;;;;;;;;;41.81;23.50;101269.22;5015523;28;19917;-89
2022/08/30 08:19:54;;;;;;;;;;;;;;;42.01;23.36;101297.66;5019055;28;19917;-89
2022/08/30 08:22:20;;;;;;;;;;;;;;;42.03;23.09;101338.78;5034817;28;19959;-90
2022/08/30 08:24:45;;;;;;;;;;;;;;;41.89;22.85;101333.94;5022075;28;19956;-88
2022/08/30 08:27:10;;;;;;;;;;;;;;;37.92;26.29;101315.03;5014618;28;19953;-90
2022/08/30 08:29:36;;;;;;;;;;;;;;;39.32;25.16;101317.09;5025339;28;20301;-90
2022/08/30 08:32:01;;;;;;;;;;;;;;;40.37;23.78;101307.28;5034799;28;19921;-89
2022/08/30 08:34:26;;;;;;;;;;;;;;;40.39;24.72;101314.16;5024706;28;20003;-90
2022/08/30 08:36:52;;;;;;;;;;;;;;;39.74;24.46;101338.78;5013508;28;19922;-91
2022/08/30 08:39:17;;;;;;;;;;;;;;;37.08;27.96;101343.91;5025454;28;19914;-91
2022/08/30 08:41:53;;;;;;;;;;;;;;;34.95;29.71;101350.38;5014272;28;19995;-92
2022/08/30 08:44:21;;;;;;;;;;;;;;;30.91;35.37;101354.41;5019699;28;19940;-92
2022/08/30 08:46:57;;;;;;;3.70;1.13;;;;;;;31.17;35.34;101353.44;5014343;28;19917;-92
2022/08/30 08:49:23;;;;;;;6.60;1.38;;;;;;;30.19;37.02;101346.25;5030170;28;20035;-91
2022/08/30 08:54:41;;;;;;;5.43;1.40;;;;;;;29.56;39.30;101347.53;5014153;28;20049;-92
2022/08/30 08:57:08;;;;;;;4.65;0.85;;;;;;;28.56;40.94;101338.28;5024727;28;20048;-93
2022/08/30 08:59:33;;;;;;;10.50;1.58;;;;;;;29.51;40.09;101350.00;5013622;28;20037;-92
2022/08/30 09:02:01;;;;;;;4.88;1.00;;;;;;;27.87;43.20;101348.81;5014595;28;20022;-93
2022/08/30 09:04:34;;;;;;;2.95;1.02;;;;;;;28.36;43.32;101352.47;5026189;28;20030;-92
2022/08/30 09:07:19;;;;;;;4.28;1.35;;;;;;;30.67;39.68;101345.94;5024272;28;20030;-92
2022/08/30 09:09:45;;;;;;;4.50;1.60;;;;;;;27.73;43.50;101354.28;5031359;28;20039;-93
2022/08/30 09:12:12;;;;;;;4.53;1.38;;;;;;;30.37;39.79;101295.00;5030898;28;20109;-92
2022/08/30 09:15:00;;;;;;;7.15;1.55;;;;;;;31.91;36.48;101266.81;5018472;28;20030;-92
2022/08/30 09:17:26;;;;;;;3.65;1.15;;;;;;;29.04;40.74;101322.03;5012044;28;20033;-93
2022/08/30 09:19:51;;;;;;;3.10;1.02;;;;;;;28.86;40.47;101336.94;5011794;28;20029;-93
2022/08/30 09:22:37;;;;;;;6.40;1.23;;;;;;;27.58;43.71;101355.19;5014020;28;20025;-92
2022/08/30 09:25:09;;;;;;;9.85;1.77;;;;;;;25.72;47.63;101357.03;5012646;28;20038;-93
2022/08/30 09:27:36;;;;;;;6.75;1.60;;;;;;;24.84;51.63;101357.38;5012347;28;20030;-94
2022/08/30 09:30:08;;;;;;;3.33;1.27;;;;;;;24.98;52.24;101351.31;5012532;28;20431;-93
2022/08/30 09:32:39;;;;;;;4.10;1.17;;;;;;;24.38;55.71;101352.66;5012381;28;20458;-92
2022/08/30 09:35:09;;;;;;;7.40;1.20;;;;;;;24.67;55.05;101364.69;5012899;28;20115;-93
2022/08/30 09:37:44;;;;;;;4.18;1.23;;;;;;;25.82;53.38;101339.81;5012859;28;20030;-93
2022/08/30 09:40:21;;;;;;;4.00;1.08;;;;;;;25.69;51.78;101354.72;5014184;28;20054;-93
2022/08/30 09:43:08;;;;;;;4.53;1.20;;;;;;;25.44;52.08;101350.53;5012965;28;20179;-93
2022/08/30 09:45:37;;;;;;;5.63;1.30;;;;;;;25.66;51.64;101352.38;5012263;28;20022;-94
2022/08/30 09:48:50;;;;;;;5.88;1.20;;;;;;;26.69;49.95;101348.16;5012765;28;20030;-93
2022/08/30 09:51:42;;;;;;;4.45;1.40;;;;;;;25.80;51.34;101352.59;4995881;28;20045;-93
2022/08/30 09:54:17;;;;;;;5.88;1.60;;;;;;;27.72;47.25;101349.91;5011655;28;20030;-92
2022/08/30 09:56:49;;;;;;;4.20;1.20;;;;;;;26.96;47.77;101353.06;5013707;28;20026;-92
2022/08/30 09:59:39;;;;;;;7.25;1.30;;;;;;;28.63;45.68;101349.94;5012278;28;20515;-92
2022/08/30 10:02:19;;;;;;;5.35;1.42;;;;;;;27.49;45.85;101356.34;5012232;28;20049;-93
2022/08/30 10:05:06;;;;;;;7.90;1.70;;;;;;;29.51;41.70;101350.00;4993057;28;20041;-94
2022/08/30 10:07:43;;;;;;;5.43;1.05;;;;;;;31.25;37.92;101346.91;4993421;28;20026;-91
2022/08/30 10:10:21;;;;;;;6.13;0.90;;;;;;;30.16;39.66;101342.09;4991928;28;20031;-91
2022/08/30 10:12:59;;;;;;;7.50;1.52;;;;;;;34.06;34.28;101342.50;4998139;28;20026;-92
2022/08/30 10:15:39;;;;;;;9.30;1.08;;;;;;;31.65;37.07;101349.34;5012754;28;20092;-91
2022/08/30 10:18:11;;;;;;;;;;;;;;;31.58;36.58;101349.44;5012076;28;20069;-91
2022/08/30 10:20:49;;;;;;;3.17;0.85;;;;;;;29.33;40.40;101347.09;5012946;28;19977;-91
2022/08/30 10:23:27;;;;;;;3.25;1.10;;;;;;;30.15;40.21;101350.44;5011999;28;20084;-92
2022/08/30 10:26:16;;;;;;;8.88;1.27;;;;;;;28.13;42.62;101350.03;5012764;28;20033;-92
2022/08/30 10:28:48;;;;;;;6.78;1.17;;;;;;;28.45;42.25;101345.03;5011007;28;20049;-92
2022/08/30 10:31:27;;;;;;;7.90;1.20;;;;;;;27.36;44.11;101350.81;5013114;28;20046;-93
2022/08/30 10:34:01;;;;;;;5.45;1.52;;;;;;;28.17;42.79;101337.00;5012038;28;20034;-92
2022/08/30 10:36:34;;;;;;;8.57;1.75;;;;;;;28.31;43.24;101344.13;5011588;28;20033;-93
2022/08/30 10:39:02;;;;;;;4.57;1.35;;;;;;;29.10;40.79;101342.84;5012484;28;20041;-93
2022/08/30 10:41:35;;;;;;;4.22;1.10;;;;;;;28.99;41.18;101341.56;5013013;28;20021;-93
2022/08/30 10:44:22;;;;;;;6.47;1.30;;;;;;;29.38;40.93;101334.59;5015207;28;20033;-94
2022/08/30 10:47:00;;;;;;;5.60;1.20;;;;;;;31.25;38.64;101338.78;4992454;28;20030;-90
2022/08/30 10:49:29;;;;;;;5.28;1.30;;;;;;;34.42;34.13;101329.66;5011398;28;20029;-90
2022/08/30 10:52:15;;;;;;;3.15;1.15;;;;;;;34.37;32.52;101333.94;5026115;28;20124;-93
2022/08/30 10:54:41;;;;;;;3.92;1.00;;;;;;;32.88;34.24;101337.63;4992726;28;20053;-92
2022/08/30 10:57:07;;;;;;;5.63;1.30;;;;;;;33.33;33.57;101330.94;5023206;28;20535;-91
2022/08/30 10:59:37;;;;;;;5.07;1.05;;;;;;;34.49;32.53;101322.19;5036015;28;20025;-93
2022/08/30 11:02:21;;;;;;;6.85;1.10;;;;;;;32.80;34.88;101325.19;5019703;28;20026;-93
2022/08/30 11:05:21;;;;;;;3.95;1.45;;;;;;;30.47;36.80;101342.47;5013975;28;20268;-93
2022/08/30 11:07:46;;;;;;;7.10;1.60;;;;;;;31.17;36.87;101329.03;5004048;28;20080;-92
2022/08/30 11:10:34;;;;;;;8.55;1.45;;;;;;;33.08;34.20;101329.19;5016124;28;20395;-91
2022/08/30 11:13:08;;;;;;;4.10;1.10;;;;;;;34.24;33.55;101326.00;5002437;28;20036;-92
2022/08/30 11:15:50;;;;;;;5.32;1.27;;;;;;;33.12;33.69;101333.13;5015573;28;20105;-92
2022/08/30 11:18:17;;;;;;;3.47;1.10;;;;;;;31.60;35.08;101323.72;5021593;28;20032;-91
2022/08/30 11:20:46;;;;;;;4.55;1.13;;;;;;;30.40;37.09;101332.47;5015893;28;20087;-92
2022/08/30 11:23:17;;;;;;;4.38;1.10;;;;;;;30.23;37.46;101331.22;5035721;28;20082;-94
2022/08/30 11:26:00;;;;;;;5.93;1.15;;;;;;;29.93;38.11;101326.28;5033482;28;20407;-92
2022/08/30 11:28:34;;;;;;;3.90;0.90;;;;;;;30.84;38.04;101321.88;5016605;28;20054;-93
2022/08/30 11:31:08;;;;;;;4.25;1.02;;;;;;;31.05;37.11;101334.31;5024143;28;20036;-93
2022/08/30 11:33:52;;;;;;;5.60;1.27;;;;;;;30.96;38.05;101333.72;5022581;28;20065;-93